createdAt,value
2018-11-05T00:01:14.669Z,9.30
2018-11-05T00:05:59.087Z,9.30
2018-11-05T00:10:42.778Z,9.30
2018-11-05T00:15:26.585Z,9.20
2018-11-05T00:20:12.367Z,9.10
2018-11-05T00:24:56.031Z,9.10
2018-11-05T00:29:39.731Z,9.00
2018-11-05T00:34:23.549Z,8.90
2018-11-05T00:39:09.453Z,8.80
2018-11-05T00:43:53.183Z,8.60
2018-11-05T00:48:40.400Z,8.40
2018-11-05T00:53:24.142Z,8.30
2018-11-05T00:58:07.940Z,8.20
2018-11-05T01:02:51.871Z,8.30
2018-11-05T01:07:35.592Z,8.40
2018-11-05T01:12:19.317Z,8.20
2018-11-05T01:17:03.013Z,8.30
2018-11-05T01:21:46.708Z,8.30
2018-11-05T01:26:30.497Z,8.20
2018-11-05T01:31:14.376Z,8.40
2018-11-05T01:35:58.185Z,8.40
2018-11-05T01:40:41.921Z,8.40
2018-11-05T01:45:25.632Z,8.30
2018-11-05T01:50:11.188Z,8.30
2018-11-05T01:54:54.887Z,8.40
2018-11-05T01:59:38.822Z,8.70
2018-11-05T02:04:22.618Z,8.90
2018-11-05T02:09:08.485Z,9.20
2018-11-05T02:13:52.242Z,9.30
2018-11-05T02:18:36.011Z,9.50
2018-11-05T02:23:19.764Z,9.50
2018-11-05T02:28:03.590Z,9.40
2018-11-05T02:32:47.845Z,9.20
2018-11-05T02:37:31.794Z,8.80
2018-11-05T02:42:15.472Z,8.50
2018-11-05T02:46:59.262Z,8.20
2018-11-05T02:51:43.077Z,7.70
2018-11-05T02:56:26.850Z,7.80
2018-11-05T03:01:10.519Z,7.80
2018-11-05T03:05:54.611Z,7.80
2018-11-05T03:10:38.549Z,7.90
2018-11-05T03:15:22.635Z,7.90
2018-11-05T03:20:07.381Z,8.00
2018-11-05T03:24:51.389Z,8.40
2018-11-05T03:29:35.175Z,8.50
2018-11-05T03:34:18.771Z,8.70
2018-11-05T03:39:02.544Z,8.80
2018-11-05T03:43:46.218Z,8.80
2018-11-05T03:48:29.944Z,8.80
2018-11-05T03:53:13.672Z,8.80
2018-11-05T03:57:57.365Z,9.00
2018-11-05T04:02:41.306Z,9.20
2018-11-05T04:07:25.020Z,9.40
2018-11-05T04:12:08.835Z,9.50
2018-11-05T04:16:52.550Z,9.60
2018-11-05T04:21:42.287Z,9.80
2018-11-05T04:26:26.107Z,9.90
2018-11-05T04:31:09.975Z,10.00
2018-11-05T04:35:53.649Z,10.10
2018-11-05T04:40:37.429Z,10.20
2018-11-05T04:45:21.223Z,10.30
2018-11-05T04:50:05.738Z,10.30
2018-11-05T04:54:49.449Z,10.10
2018-11-05T04:59:33.321Z,10.00
2018-11-05T05:04:16.982Z,9.90
2018-11-05T05:09:00.807Z,9.90
2018-11-05T05:13:44.559Z,9.90
2018-11-05T05:18:28.565Z,9.90
2018-11-05T05:23:12.381Z,9.70
2018-11-05T05:27:56.015Z,10.00
2018-11-05T05:32:39.685Z,10.10
2018-11-05T05:37:23.395Z,10.20
2018-11-05T05:42:07.373Z,10.20
2018-11-05T05:46:51.137Z,10.20
2018-11-05T05:51:35.233Z,10.20
2018-11-05T05:56:19.023Z,10.20
2018-11-05T06:01:02.680Z,10.20
2018-11-05T06:05:46.353Z,10.20
2018-11-05T06:10:30.171Z,10.20
2018-11-05T06:15:15.145Z,10.20
2018-11-05T06:19:58.883Z,10.10
2018-11-05T06:24:42.563Z,10.00
2018-11-05T06:29:26.260Z,9.90
2018-11-05T06:34:09.960Z,10.00
2018-11-05T06:38:54.538Z,10.00
2018-11-05T06:43:38.282Z,10.10
2018-11-05T06:48:21.909Z,10.10
2018-11-05T06:53:05.781Z,10.20
2018-11-05T06:57:49.726Z,10.20
2018-11-05T07:02:33.574Z,10.20
2018-11-05T07:07:17.254Z,10.10
2018-11-05T07:12:01.021Z,10.10
2018-11-05T07:16:44.726Z,10.10
2018-11-05T07:21:28.561Z,10.10
2018-11-05T07:26:12.284Z,10.20
2018-11-05T07:30:56.040Z,10.30
2018-11-05T07:35:39.728Z,10.40
2018-11-05T07:40:23.480Z,10.40
2018-11-05T07:45:09.256Z,10.50
2018-11-05T07:49:53.057Z,10.70
2018-11-05T07:54:36.874Z,10.90
2018-11-05T07:59:20.629Z,11.10
2018-11-05T08:04:04.403Z,11.30
2018-11-05T08:08:48.339Z,11.40
2018-11-05T08:13:32.344Z,11.50
2018-11-05T08:18:16.340Z,11.50
2018-11-05T08:23:00.052Z,11.70
2018-11-05T08:27:43.767Z,11.80
2018-11-05T08:32:27.488Z,12.10
2018-11-05T08:37:11.442Z,12.30
2018-11-05T08:41:55.143Z,12.50
2018-11-05T08:46:39.419Z,12.70
2018-11-05T08:51:23.679Z,12.90
2018-11-05T08:56:07.246Z,13.20
2018-11-05T09:00:54.914Z,13.30
2018-11-05T09:05:38.631Z,13.50
2018-11-05T09:10:22.479Z,13.60
2018-11-05T09:15:07.403Z,13.70
2018-11-05T09:19:51.045Z,13.90
2018-11-05T09:24:34.741Z,13.90
2018-11-05T09:29:18.529Z,14.10
2018-11-05T09:34:02.425Z,14.20
2018-11-05T09:38:46.214Z,14.30
2018-11-05T09:43:30.048Z,14.30
2018-11-05T09:48:13.769Z,14.40
2018-11-05T09:52:57.498Z,14.50
2018-11-05T09:57:41.495Z,14.60
2018-11-05T10:02:29.708Z,14.70
2018-11-05T10:07:13.385Z,14.90
2018-11-05T10:11:57.038Z,15.10
2018-11-05T10:16:40.736Z,15.40
2018-11-05T10:21:24.760Z,15.60
2018-11-05T10:26:08.514Z,15.80
2018-11-05T10:30:52.298Z,16.10
2018-11-05T10:35:41.433Z,16.40
2018-11-05T10:40:25.248Z,16.70
2018-11-05T10:45:10.394Z,16.90
2018-11-05T10:49:54.064Z,17.20
2018-11-05T10:54:37.871Z,17.30
2018-11-05T10:59:21.876Z,17.60
2018-11-05T11:04:11.206Z,17.70
2018-11-05T11:08:54.882Z,17.70
2018-11-05T11:13:38.722Z,17.90
2018-11-05T11:18:22.440Z,17.90
2018-11-05T11:23:06.670Z,18.30
2018-11-05T11:27:50.594Z,18.60
2018-11-05T11:32:34.466Z,18.80
2018-11-05T11:37:18.368Z,19.10
2018-11-05T11:42:02.084Z,19.30
2018-11-05T11:46:45.897Z,19.20
2018-11-05T11:51:29.746Z,18.90
2018-11-05T11:56:13.534Z,18.80
2018-11-05T12:00:57.441Z,18.60
2018-11-05T12:05:41.213Z,18.40
2018-11-05T12:10:25.229Z,18.00
2018-11-05T12:15:10.012Z,17.90
2018-11-05T12:19:53.698Z,17.60
2018-11-05T12:24:37.579Z,17.70
2018-11-05T12:29:21.488Z,17.60
2018-11-05T12:34:06.024Z,17.30
2018-11-05T12:38:50.168Z,17.00
2018-11-05T12:43:33.906Z,16.60
2018-11-05T12:48:17.706Z,16.20
2018-11-05T12:53:02.025Z,16.10
2018-11-05T12:57:46.098Z,15.90
2018-11-05T13:02:29.894Z,15.80
2018-11-05T13:07:14.115Z,15.70
2018-11-05T13:11:57.942Z,15.70
2018-11-05T13:16:41.854Z,15.70
2018-11-05T13:21:25.568Z,15.70
2018-11-05T13:26:09.312Z,15.60
2018-11-05T13:30:52.992Z,15.50
2018-11-05T13:35:36.736Z,15.50
2018-11-05T13:40:21.595Z,15.40
2018-11-05T13:45:06.355Z,15.40
2018-11-05T13:49:50.530Z,15.20
2018-11-05T13:54:34.262Z,15.20
2018-11-05T13:59:17.849Z,15.10
2018-11-05T14:04:01.628Z,15.00
2018-11-05T14:08:45.405Z,15.00
2018-11-05T14:13:29.127Z,14.80
2018-11-05T14:18:12.922Z,14.70
2018-11-05T14:22:56.672Z,14.60
2018-11-05T14:27:40.917Z,14.40
2018-11-05T14:32:24.404Z,14.30
2018-11-05T14:37:08.169Z,14.30
2018-11-05T14:41:52.046Z,14.00
2018-11-05T14:46:35.682Z,14.00
2018-11-05T14:51:19.407Z,13.90
2018-11-05T14:56:03.118Z,13.80
2018-11-05T15:00:46.896Z,13.70
2018-11-05T15:05:30.677Z,13.50
2018-11-05T15:10:15.724Z,13.40
2018-11-05T15:14:59.590Z,13.50
2018-11-05T15:19:43.737Z,13.50
2018-11-05T15:24:27.284Z,13.60
2018-11-05T15:29:11.143Z,13.50
2018-11-05T15:33:54.851Z,13.40
2018-11-05T15:38:38.536Z,13.30
2018-11-05T15:43:22.340Z,13.30
2018-11-05T15:48:06.301Z,13.20
2018-11-05T15:52:50.658Z,13.10
2018-11-05T15:57:33.999Z,13.10
2018-11-05T16:02:17.712Z,13.10
2018-11-05T16:07:01.707Z,13.00
2018-11-05T16:11:45.605Z,13.00
2018-11-05T16:16:29.732Z,12.90
2018-11-05T16:21:13.755Z,12.90
2018-11-05T16:25:57.402Z,12.80
2018-11-05T16:30:41.513Z,13.00
2018-11-05T16:35:25.648Z,13.00
2018-11-05T16:40:11.619Z,12.90
2018-11-05T16:44:55.734Z,12.80
2018-11-05T16:49:39.458Z,12.70
2018-11-05T16:54:23.381Z,12.70
2018-11-05T16:59:07.737Z,12.70
2018-11-05T17:03:52.432Z,12.80
2018-11-05T17:08:36.180Z,12.80
2018-11-05T17:13:20.245Z,13.00
2018-11-05T17:18:04.168Z,13.10
2018-11-05T17:22:47.928Z,13.00
2018-11-05T17:27:32.084Z,13.00
2018-11-05T17:32:16.022Z,13.10
2018-11-05T17:37:03.386Z,12.90
2018-11-05T17:41:47.927Z,12.90
2018-11-05T17:46:31.705Z,13.10
2018-11-05T17:51:15.434Z,13.00
2018-11-05T17:55:59.556Z,12.90
2018-11-05T18:00:44.005Z,13.00
2018-11-05T18:05:27.866Z,13.00
2018-11-05T18:10:11.805Z,12.90
2018-11-05T18:14:55.524Z,12.90
2018-11-05T18:19:39.434Z,12.90
2018-11-05T18:29:18.652Z,13.00
2018-11-05T18:34:02.468Z,12.90
2018-11-05T18:38:47.768Z,12.90
2018-11-05T18:43:31.754Z,12.80
2018-11-05T18:48:16.135Z,12.80
2018-11-05T18:53:00.076Z,12.80
2018-11-05T18:57:44.030Z,12.70
2018-11-05T19:02:33.641Z,12.70
2018-11-05T19:07:17.982Z,12.70
2018-11-05T19:12:01.814Z,12.60
2018-11-05T19:16:45.776Z,12.60
2018-11-05T19:21:32.611Z,12.60
2018-11-05T19:26:16.509Z,12.60
2018-11-05T19:31:00.509Z,12.50
2018-11-05T19:35:44.503Z,12.60
2018-11-05T19:40:28.431Z,12.60
2018-11-05T19:45:14.342Z,12.60
2018-11-05T19:49:58.425Z,12.60
2018-11-05T19:54:42.297Z,12.50
2018-11-05T19:59:26.313Z,12.40
2018-11-05T20:04:17.347Z,12.40
2018-11-05T20:09:01.247Z,12.30
2018-11-05T20:13:45.625Z,12.40
2018-11-05T20:18:29.959Z,12.40
2018-11-05T20:23:13.687Z,12.30
2018-11-05T20:27:57.777Z,12.40
2018-11-05T20:32:42.101Z,12.30
2018-11-05T20:37:29.328Z,12.20
2018-11-05T20:42:13.603Z,12.20
2018-11-05T20:46:57.697Z,12.20
2018-11-05T20:51:45.978Z,12.20
2018-11-05T20:56:30.454Z,12.20
2018-11-05T21:01:14.637Z,12.10
2018-11-05T21:05:58.817Z,12.00
2018-11-05T21:10:43.888Z,11.90
2018-11-05T21:15:27.840Z,12.00
2018-11-05T21:20:12.222Z,12.00
2018-11-05T21:24:57.621Z,12.00
2018-11-05T21:29:42.047Z,12.00
2018-11-05T21:34:25.828Z,12.00
2018-11-05T21:39:11.714Z,11.90
2018-11-05T21:43:55.780Z,11.90
2018-11-05T21:48:40.688Z,11.90
2018-11-05T21:53:24.680Z,11.90
2018-11-05T21:58:08.688Z,12.00
2018-11-05T22:02:57.675Z,11.90
2018-11-05T22:07:42.647Z,12.00
2018-11-05T22:12:26.678Z,11.90
2018-11-05T22:17:11.817Z,11.80
2018-11-05T22:21:56.340Z,11.70
2018-11-05T22:26:44.236Z,11.50
2018-11-05T22:31:28.307Z,11.40
2018-11-05T22:36:12.105Z,11.20
2018-11-05T22:40:56.244Z,11.10
2018-11-05T22:45:40.527Z,11.10
2018-11-05T22:50:24.696Z,11.10
2018-11-05T22:55:10.079Z,11.10
2018-11-05T22:59:53.951Z,11.10
2018-11-05T23:04:39.943Z,11.10
2018-11-05T23:09:24.145Z,11.10
2018-11-05T23:14:07.867Z,11.00
2018-11-05T23:18:52.520Z,11.00
2018-11-05T23:23:36.507Z,11.00
2018-11-05T23:28:20.315Z,11.00
2018-11-05T23:33:04.667Z,10.90
2018-11-05T23:37:48.433Z,10.80
2018-11-05T23:42:32.225Z,10.90
2018-11-05T23:47:15.949Z,10.90
2018-11-05T23:51:59.861Z,10.70
2018-11-05T23:56:43.541Z,10.60
